sensor_id;sensor_type;location;lat;lon;timestamp;pressure;altitude;pressure_sealevel;temperature;humidity
51099;BME280;37146;48.210;16.234;2023-04-16T00:00:56;98509.97;;;3.32;100.00
51099;BME280;37146;48.210;16.234;2023-04-16T00:03:21;98500.13;;;3.37;100.00
51099;BME280;37146;48.210;16.234;2023-04-16T00:05:47;98506.38;;;3.34;100.00
51099;BME280;37146;48.210;16.234;2023-04-16T00:08:12;98506.13;;;3.42;100.00
51099;BME280;37146;48.210;16.234;2023-04-16T00:10:38;98495.53;;;3.44;100.00
51099;BME280;37146;48.210;16.234;2023-04-16T00:13:03;98499.75;;;3.49;100.00
51099;BME280;37146;48.210;16.234;2023-04-16T00:15:28;98497.19;;;3.46;100.00
51099;BME280;37146;48.210;16.234;2023-04-16T00:17:53;98501.81;;;3.39;100.00
51099;BME280;37146;48.210;16.234;2023-04-16T00:20:19;98500.13;;;3.37;100.00
51099;BME280;37146;48.210;16.234;2023-04-16T00:22:44;98504.44;;;3.39;100.00
51099;BME280;37146;48.210;16.234;2023-04-16T00:25:09;98507.88;;;3.43;100.00
51099;BME280;37146;48.210;16.234;2023-04-16T00:27:35;98505.38;;;3.38;100.00
51099;BME280;37146;48.210;16.234;2023-04-16T00:30:00;98503.78;;;3.33;100.00
51099;BME280;37146;48.210;16.234;2023-04-16T00:32:25;98499.41;;;3.32;100.00
51099;BME280;37146;48.210;16.234;2023-04-16T00:34:50;98499.53;;;3.27;100.00
51099;BME280;37146;48.210;16.234;2023-04-16T00:37:16;98498.06;;;3.18;100.00
51099;BME280;37146;48.210;16.234;2023-04-16T00:39:41;98498.91;;;3.19;100.00
51099;BME280;37146;48.210;16.234;2023-04-16T00:42:06;98502.75;;;3.08;100.00
51099;BME280;37146;48.210;16.234;2023-04-16T00:44:31;98502.69;;;3.10;100.00
51099;BME280;37146;48.210;16.234;2023-04-16T00:47:00;98503.78;;;3.03;100.00
51099;BME280;37146;48.210;16.234;2023-04-16T00:49:25;98505.72;;;2.98;100.00
51099;BME280;37146;48.210;16.234;2023-04-16T00:51:51;98512.25;;;2.84;100.00
51099;BME280;37146;48.210;16.234;2023-04-16T00:54:16;98512.34;;;2.81;100.00
51099;BME280;37146;48.210;16.234;2023-04-16T00:56:42;98514.19;;;2.77;100.00
51099;BME280;37146;48.210;16.234;2023-04-16T00:59:08;98508.94;;;2.76;100.00
51099;BME280;37146;48.210;16.234;2023-04-16T01:01:33;98510.22;;;2.62;100.00
51099;BME280;37146;48.210;16.234;2023-04-16T01:03:58;98517.31;;;2.60;100.00
51099;BME280;37146;48.210;16.234;2023-04-16T01:06:24;98511.94;;;2.63;100.00
51099;BME280;37146;48.210;16.234;2023-04-16T01:08:50;98516.47;;;2.58;100.00
51099;BME280;37146;48.210;16.234;2023-04-16T01:11:15;98516.81;;;2.46;100.00
51099;BME280;37146;48.210;16.234;2023-04-16T01:13:40;98516.88;;;2.43;100.00
51099;BME280;37146;48.210;16.234;2023-04-16T01:16:06;98521.59;;;2.31;100.00
51099;BME280;37146;48.210;16.234;2023-04-16T01:18:32;98514.81;;;2.21;100.00
51099;BME280;37146;48.210;16.234;2023-04-16T01:20:57;98514.13;;;2.13;100.00
51099;BME280;37146;48.210;16.234;2023-04-16T01:23:23;98518.50;;;2.14;100.00
51099;BME280;37146;48.210;16.234;2023-04-16T01:25:48;98520.19;;;2.18;100.00
51099;BME280;37146;48.210;16.234;2023-04-16T01:28:13;98525.41;;;2.20;100.00
51099;BME280;37146;48.210;16.234;2023-04-16T01:30:38;98526.25;;;1.85;100.00
51099;BME280;37146;48.210;16.234;2023-04-16T01:33:04;98517.25;;;1.94;100.00
51099;BME280;37146;48.210;16.234;2023-04-16T01:35:29;98520.78;;;1.93;100.00
51099;BME280;37146;48.210;16.234;2023-04-16T01:37:55;98523.97;;;2.08;100.00
51099;BME280;37146;48.210;16.234;2023-04-16T01:40:20;98527.69;;;1.99;100.00
51099;BME280;37146;48.210;16.234;2023-04-16T01:42:45;98531.88;;;2.08;100.00
51099;BME280;37146;48.210;16.234;2023-04-16T01:45:10;98543.31;;;2.07;100.00
51099;BME280;37146;48.210;16.234;2023-04-16T01:47:36;98543.44;;;2.02;100.00
51099;BME280;37146;48.210;16.234;2023-04-16T01:50:02;98541.09;;;1.90;100.00
51099;BME280;37146;48.210;16.234;2023-04-16T01:52:27;98557.44;;;1.66;100.00
51099;BME280;37146;48.210;16.234;2023-04-16T01:54:52;98549.34;;;1.76;100.00
51099;BME280;37146;48.210;16.234;2023-04-16T01:57:18;98549.34;;;1.76;100.00
51099;BME280;37146;48.210;16.234;2023-04-16T01:59:43;98559.00;;;1.75;100.00
51099;BME280;37146;48.210;16.234;2023-04-16T02:02:12;98551.25;;;1.67;100.00
51099;BME280;37146;48.210;16.234;2023-04-16T02:04:39;98536.06;;;1.80;100.00
51099;BME280;37146;48.210;16.234;2023-04-16T02:07:04;98547.66;;;1.72;100.00
51099;BME280;37146;48.210;16.234;2023-04-16T02:09:30;98542.44;;;1.70;100.00
51099;BME280;37146;48.210;16.234;2023-04-16T02:11:55;98546.09;;;1.64;100.00
51099;BME280;37146;48.210;16.234;2023-04-16T02:14:20;98540.09;;;1.58;100.00
51099;BME280;37146;48.210;16.234;2023-04-16T02:16:49;98549.63;;;1.63;100.00
51099;BME280;37146;48.210;16.234;2023-04-16T02:19:14;98554.06;;;1.61;100.00
51099;BME280;37146;48.210;16.234;2023-04-16T02:21:40;98552.66;;;1.45;100.00
51099;BME280;37146;48.210;16.234;2023-04-16T02:24:05;98553.09;;;1.65;100.00
51099;BME280;37146;48.210;16.234;2023-04-16T02:26:30;98548.63;;;1.69;100.00
51099;BME280;37146;48.210;16.234;2023-04-16T02:28:56;98555.53;;;1.75;100.00
51099;BME280;37146;48.210;16.234;2023-04-16T02:31:21;98560.06;;;1.66;100.00
51099;BME280;37146;48.210;16.234;2023-04-16T02:33:47;98548.63;;;1.67;100.00
51099;BME280;37146;48.210;16.234;2023-04-16T02:36:12;98542.09;;;1.84;100.00
51099;BME280;37146;48.210;16.234;2023-04-16T02:38:37;98557.22;;;1.77;100.00
51099;BME280;37146;48.210;16.234;2023-04-16T02:41:02;98558.59;;;1.92;100.00
51099;BME280;37146;48.210;16.234;2023-04-16T02:43:28;98555.84;;;1.98;100.00
51099;BME280;37146;48.210;16.234;2023-04-16T02:45:53;98554.91;;;1.99;100.00
51099;BME280;37146;48.210;16.234;2023-04-16T02:48:18;98556.41;;;2.11;100.00
51099;BME280;37146;48.210;16.234;2023-04-16T02:50:43;98549.53;;;2.04;100.00
51099;BME280;37146;48.210;16.234;2023-04-16T02:53:09;98555.75;;;2.01;100.00
51099;BME280;37146;48.210;16.234;2023-04-16T02:55:34;98554.72;;;2.07;100.00
51099;BME280;37146;48.210;16.234;2023-04-16T02:58:00;98557.34;;;2.09;100.00
51099;BME280;37146;48.210;16.234;2023-04-16T03:00:25;98560.88;;;2.08;100.00
51099;BME280;37146;48.210;16.234;2023-04-16T03:02:50;98562.53;;;2.12;100.00
51099;BME280;37146;48.210;16.234;2023-04-16T03:05:15;98572.06;;;2.17;100.00
51099;BME280;37146;48.210;16.234;2023-04-16T03:07:41;98567.66;;;2.18;100.00
51099;BME280;37146;48.210;16.234;2023-04-16T03:10:06;98571.28;;;2.14;100.00
51099;BME280;37146;48.210;16.234;2023-04-16T03:12:32;98572.03;;;2.19;100.00
51099;BME280;37146;48.210;16.234;2023-04-16T03:14:57;98570.13;;;2.26;100.00
51099;BME280;37146;48.210;16.234;2023-04-16T03:17:22;98576.38;;;2.22;100.00
51099;BME280;37146;48.210;16.234;2023-04-16T03:19:47;98576.97;;;2.33;100.00
51099;BME280;37146;48.210;16.234;2023-04-16T03:22:14;98578.00;;;2.27;100.00
51099;BME280;37146;48.210;16.234;2023-04-16T03:24:39;98576.09;;;2.32;100.00
51099;BME280;37146;48.210;16.234;2023-04-16T03:27:05;98581.16;;;2.42;100.00
51099;BME280;37146;48.210;16.234;2023-04-16T03:29:30;98581.28;;;2.36;100.00
51099;BME280;37146;48.210;16.234;2023-04-16T03:31:55;98590.84;;;2.41;100.00
51099;BME280;37146;48.210;16.234;2023-04-16T03:34:21;98586.44;;;2.42;100.00
51099;BME280;37146;48.210;16.234;2023-04-16T03:36:46;98597.06;;;2.39;100.00
51099;BME280;37146;48.210;16.234;2023-04-16T03:39:11;98595.84;;;2.52;100.00
51099;BME280;37146;48.210;16.234;2023-04-16T03:41:37;98595.75;;;2.55;100.00
51099;BME280;37146;48.210;16.234;2023-04-16T03:44:02;98600.19;;;2.55;100.00
51099;BME280;37146;48.210;16.234;2023-04-16T03:46:27;98599.59;;;2.43;100.00
51099;BME280;37146;48.210;16.234;2023-04-16T03:48:52;98599.88;;;2.66;100.00
51099;BME280;37146;48.210;16.234;2023-04-16T03:51:18;98608.88;;;2.58;100.00
51099;BME280;37146;48.210;16.234;2023-04-16T03:53:43;98601.84;;;2.57;100.00
51099;BME280;37146;48.210;16.234;2023-04-16T03:56:08;98604.31;;;2.65;100.00
51099;BME280;37146;48.210;16.234;2023-04-16T03:58:33;98606.81;;;2.70;100.00
51099;BME280;37146;48.210;16.234;2023-04-16T04:00:58;98607.72;;;2.69;100.00
51099;BME280;37146;48.210;16.234;2023-04-16T04:03:24;98605.03;;;2.72;100.00
51099;BME280;37146;48.210;16.234;2023-04-16T04:05:50;98615.59;;;2.72;100.00
51099;BME280;37146;48.210;16.234;2023-04-16T04:08:15;98618.25;;;2.70;100.00
51099;BME280;37146;48.210;16.234;2023-04-16T04:10:40;98626.06;;;2.75;100.00
51099;BME280;37146;48.210;16.234;2023-04-16T04:13:05;98630.31;;;2.81;100.00
51099;BME280;37146;48.210;16.234;2023-04-16T04:15:31;98633.75;;;2.84;100.00
51099;BME280;37146;48.210;16.234;2023-04-16T04:17:56;98636.28;;;2.87;100.00
51099;BME280;37146;48.210;16.234;2023-04-16T04:20:22;98640.66;;;2.88;100.00
51099;BME280;37146;48.210;16.234;2023-04-16T04:22:48;98646.78;;;2.90;100.00
51099;BME280;37146;48.210;16.234;2023-04-16T04:25:13;98650.25;;;2.92;100.00
51099;BME280;37146;48.210;16.234;2023-04-16T04:27:39;98651.91;;;2.97;100.00
51099;BME280;37146;48.210;16.234;2023-04-16T04:30:04;98650.97;;;2.99;100.00
51099;BME280;37146;48.210;16.234;2023-04-16T04:32:30;98642.91;;;3.04;100.00
51099;BME280;37146;48.210;16.234;2023-04-16T04:34:55;98644.56;;;3.08;100.00
51099;BME280;37146;48.210;16.234;2023-04-16T04:37:20;98642.72;;;3.10;100.00
51099;BME280;37146;48.210;16.234;2023-04-16T04:39:46;98646.19;;;3.12;100.00
51099;BME280;37146;48.210;16.234;2023-04-16T04:42:11;98645.22;;;3.16;100.00
51099;BME280;37146;48.210;16.234;2023-04-16T04:44:36;98658.44;;;3.16;100.00
51099;BME280;37146;48.210;16.234;2023-04-16T04:47:01;98662.06;;;3.12;100.00
51099;BME280;37146;48.210;16.234;2023-04-16T04:49:27;98661.03;;;3.18;100.00
51099;BME280;37146;48.210;16.234;2023-04-16T04:51:52;98670.75;;;3.17;100.00
51099;BME280;37146;48.210;16.234;2023-04-16T04:54:17;98675.81;;;3.25;100.00
51099;BME280;37146;48.210;16.234;2023-04-16T04:56:42;98675.72;;;3.28;100.00
51099;BME280;37146;48.210;16.234;2023-04-16T04:59:11;98679.13;;;3.32;100.00
51099;BME280;37146;48.210;16.234;2023-04-16T05:01:36;98684.41;;;3.33;100.00
51099;BME280;37146;48.210;16.234;2023-04-16T05:04:02;98686.00;;;3.39;100.00
51099;BME280;37146;48.210;16.234;2023-04-16T05:06:27;98691.19;;;3.42;100.00
51099;BME280;37146;48.210;16.234;2023-04-16T05:08:52;98688.59;;;3.40;100.00
51099;BME280;37146;48.210;16.234;2023-04-16T05:11:17;98698.00;;;3.52;100.00
51099;BME280;37146;48.210;16.234;2023-04-16T05:13:43;98702.38;;;3.52;100.00
51099;BME280;37146;48.210;16.234;2023-04-16T05:16:08;98710.03;;;3.63;100.00
51099;BME280;37146;48.210;16.234;2023-04-16T05:18:33;98714.38;;;3.65;100.00
51099;BME280;37146;48.210;16.234;2023-04-16T05:20:58;98707.13;;;3.72;100.00
51099;BME280;37146;48.210;16.234;2023-04-16T05:23:23;98709.50;;;3.81;100.00
51099;BME280;37146;48.210;16.234;2023-04-16T05:25:49;98713.69;;;3.89;100.00
51099;BME280;37146;48.210;16.234;2023-04-16T05:28:14;98721.47;;;3.95;100.00
51099;BME280;37146;48.210;16.234;2023-04-16T05:30:39;98723.91;;;4.01;100.00
51099;BME280;37146;48.210;16.234;2023-04-16T05:33:04;98723.69;;;4.09;100.00
51099;BME280;37146;48.210;16.234;2023-04-16T05:35:30;98718.31;;;4.12;100.00
51099;BME280;37146;48.210;16.234;2023-04-16T05:37:55;98720.69;;;4.20;100.00
51099;BME280;37146;48.210;16.234;2023-04-16T05:40:20;98724.00;;;4.28;100.00
51099;BME280;37146;48.210;16.234;2023-04-16T05:42:45;98718.50;;;4.34;100.00
51099;BME280;37146;48.210;16.234;2023-04-16T05:45:11;98721.91;;;4.39;100.00
51099;BME280;37146;48.210;16.234;2023-04-16T05:47:36;98714.66;;;4.44;100.00
51099;BME280;37146;48.210;16.234;2023-04-16T05:50:01;98722.50;;;4.47;100.00
51099;BME280;37146;48.210;16.234;2023-04-16T05:52:26;98726.00;;;4.48;100.00
51099;BME280;37146;48.210;16.234;2023-04-16T05:54:51;98724.94;;;4.54;100.00
51099;BME280;37146;48.210;16.234;2023-04-16T05:57:17;98723.03;;;4.59;100.00
51099;BME280;37146;48.210;16.234;2023-04-16T05:59:42;98727.97;;;4.70;100.00
51099;BME280;37146;48.210;16.234;2023-04-16T06:02:07;98723.56;;;4.70;100.00
51099;BME280;37146;48.210;16.234;2023-04-16T06:04:32;98723.41;;;4.75;100.00
51099;BME280;37146;48.210;16.234;2023-04-16T06:06:59;98724.16;;;4.78;100.00
51099;BME280;37146;48.210;16.234;2023-04-16T06:09:24;98721.22;;;4.88;100.00
51099;BME280;37146;48.210;16.234;2023-04-16T06:11:50;98727.03;;;4.99;100.00
51099;BME280;37146;48.210;16.234;2023-04-16T06:14:15;98718.06;;;5.03;100.00
51099;BME280;37146;48.210;16.234;2023-04-16T06:16:40;98730.19;;;5.10;100.00
51099;BME280;37146;48.210;16.234;2023-04-16T06:19:05;98724.69;;;5.17;100.00
51099;BME280;37146;48.210;16.234;2023-04-16T06:21:31;98735.06;;;5.23;100.00
51099;BME280;37146;48.210;16.234;2023-04-16T06:23:56;98732.91;;;5.34;100.00
51099;BME280;37146;48.210;16.234;2023-04-16T06:26:21;98732.59;;;5.44;100.00
51099;BME280;37146;48.210;16.234;2023-04-16T06:28:47;98737.84;;;5.45;100.00
51099;BME280;37146;48.210;16.234;2023-04-16T06:31:12;98741.03;;;5.55;100.00
51099;BME280;37146;48.210;16.234;2023-04-16T06:33:37;98742.56;;;5.62;100.00
51099;BME280;37146;48.210;16.234;2023-04-16T06:36:02;98745.91;;;5.67;100.00
51099;BME280;37146;48.210;16.234;2023-04-16T06:38:28;98747.69;;;5.67;100.00
51099;BME280;37146;48.210;16.234;2023-04-16T06:40:53;98749.25;;;5.72;100.00
51099;BME280;37146;48.210;16.234;2023-04-16T06:43:18;98742.22;;;5.71;100.00
51099;BME280;37146;48.210;16.234;2023-04-16T06:45:43;98743.13;;;5.70;100.00
51099;BME280;37146;48.210;16.234;2023-04-16T06:48:09;98740.25;;;5.77;100.00
51099;BME280;37146;48.210;16.234;2023-04-16T06:50:34;98743.19;;;5.69;100.00
51099;BME280;37146;48.210;16.234;2023-04-16T06:52:59;98744.53;;;5.81;100.00
51099;BME280;37146;48.210;16.234;2023-04-16T06:55:24;98742.00;;;5.78;100.00
51099;BME280;37146;48.210;16.234;2023-04-16T06:57:50;98746.00;;;5.90;100.00
51099;BME280;37146;48.210;16.234;2023-04-16T07:00:15;98754.41;;;5.77;100.00
51099;BME280;37146;48.210;16.234;2023-04-16T07:02:40;98755.16;;;5.81;100.00
51099;BME280;37146;48.210;16.234;2023-04-16T07:05:06;98763.50;;;5.95;100.00
51099;BME280;37146;48.210;16.234;2023-04-16T07:07:31;98764.94;;;6.04;100.00
51099;BME280;37146;48.210;16.234;2023-04-16T07:09:57;98771.34;;;6.22;100.00
51099;BME280;37146;48.210;16.234;2023-04-16T07:12:22;98765.03;;;6.26;100.00
51099;BME280;37146;48.210;16.234;2023-04-16T07:14:48;98770.91;;;6.34;100.00
51099;BME280;37146;48.210;16.234;2023-04-16T07:17:13;98777.38;;;6.27;100.00
51099;BME280;37146;48.210;16.234;2023-04-16T07:19:38;98777.38;;;6.27;100.00
51099;BME280;37146;48.210;16.234;2023-04-16T07:22:03;98787.19;;;6.25;100.00
51099;BME280;37146;48.210;16.234;2023-04-16T07:24:29;98789.25;;;6.41;100.00
51099;BME280;37146;48.210;16.234;2023-04-16T07:26:54;98785.81;;;6.39;100.00
51099;BME280;37146;48.210;16.234;2023-04-16T07:29:19;98789.88;;;6.24;100.00
51099;BME280;37146;48.210;16.234;2023-04-16T07:31:45;98796.66;;;6.32;100.00
51099;BME280;37146;48.210;16.234;2023-04-16T07:34:10;98794.88;;;6.09;100.00
51099;BME280;37146;48.210;16.234;2023-04-16T07:36:35;98801.72;;;6.15;100.00
51099;BME280;37146;48.210;16.234;2023-04-16T07:39:01;98803.97;;;6.26;100.00
51099;BME280;37146;48.210;16.234;2023-04-16T07:41:26;98807.50;;;6.26;100.00
51099;BME280;37146;48.210;16.234;2023-04-16T07:43:53;98807.38;;;6.29;100.00
51099;BME280;37146;48.210;16.234;2023-04-16T07:46:18;98807.38;;;6.29;100.00
51099;BME280;37146;48.210;16.234;2023-04-16T07:48:43;98811.75;;;6.30;100.00
51099;BME280;37146;48.210;16.234;2023-04-16T07:51:09;98816.34;;;6.50;100.00
51099;BME280;37146;48.210;16.234;2023-04-16T07:53:34;98813.59;;;6.52;100.00
51099;BME280;37146;48.210;16.234;2023-04-16T07:55:59;98805.00;;;6.91;100.00
51099;BME280;37146;48.210;16.234;2023-04-16T07:58:25;98811.47;;;6.84;100.00
51099;BME280;37146;48.210;16.234;2023-04-16T08:00:50;98810.16;;;7.39;100.00
51099;BME280;37146;48.210;16.234;2023-04-16T08:03:15;98808.78;;;7.71;100.00
51099;BME280;37146;48.210;16.234;2023-04-16T08:05:41;98809.06;;;7.65;100.00
51099;BME280;37146;48.210;16.234;2023-04-16T08:08:07;98811.31;;;7.95;100.00
51099;BME280;37146;48.210;16.234;2023-04-16T08:10:32;98812.97;;;7.98;100.00
51099;BME280;37146;48.210;16.234;2023-04-16T08:12:59;98809.84;;;7.67;100.00
51099;BME280;37146;48.210;16.234;2023-04-16T08:15:24;98809.81;;;7.69;100.00
51099;BME280;37146;48.210;16.234;2023-04-16T08:17:49;98811.78;;;7.84;100.00
51099;BME280;37146;48.210;16.234;2023-04-16T08:20:15;98814.59;;;8.02;100.00
51099;BME280;37146;48.210;16.234;2023-04-16T08:22:40;98815.28;;;8.26;100.00
51099;BME280;37146;48.210;16.234;2023-04-16T08:25:05;98811.56;;;8.49;100.00
51099;BME280;37146;48.210;16.234;2023-04-16T08:27:31;98814.38;;;8.65;100.00
51099;BME280;37146;48.210;16.234;2023-04-16T08:29:56;98822.22;;;9.07;100.00
51099;BME280;37146;48.210;16.234;2023-04-16T08:32:21;98821.84;;;9.15;95.44
51099;BME280;37146;48.210;16.234;2023-04-16T08:34:46;98826.63;;;8.89;93.93
51099;BME280;37146;48.210;16.234;2023-04-16T08:37:12;98820.13;;;9.13;94.72
51099;BME280;37146;48.210;16.234;2023-04-16T08:39:37;98824.28;;;9.19;92.37
51099;BME280;37146;48.210;16.234;2023-04-16T08:42:03;98826.38;;;9.49;91.40
51099;BME280;37146;48.210;16.234;2023-04-16T08:44:30;98822.22;;;9.79;91.27
51099;BME280;37146;48.210;16.234;2023-04-16T08:46:56;98830.16;;;9.63;90.92
51099;BME280;37146;48.210;16.234;2023-04-16T08:49:23;98834.91;;;8.82;96.12
51099;BME280;37146;48.210;16.234;2023-04-16T08:51:49;98836.88;;;8.79;100.00
51099;BME280;37146;48.210;16.234;2023-04-16T08:54:16;98839.25;;;8.66;100.00
51099;BME280;37146;48.210;16.234;2023-04-16T08:56:45;98836.88;;;8.39;100.00
51099;BME280;37146;48.210;16.234;2023-04-16T08:59:12;98837.47;;;8.27;100.00
51099;BME280;37146;48.210;16.234;2023-04-16T09:01:37;98840.63;;;8.35;100.00
51099;BME280;37146;48.210;16.234;2023-04-16T09:04:05;98838.03;;;8.54;97.06
51099;BME280;37146;48.210;16.234;2023-04-16T09:06:31;98847.69;;;8.76;96.40
51099;BME280;37146;48.210;16.234;2023-04-16T09:08:57;98848.41;;;8.79;97.05
51099;BME280;37146;48.210;16.234;2023-04-16T09:11:23;98851.69;;;8.65;95.40
51099;BME280;37146;48.210;16.234;2023-04-16T09:13:49;98844.72;;;9.01;95.49
51099;BME280;37146;48.210;16.234;2023-04-16T09:16:15;98844.25;;;8.93;94.69
51099;BME280;37146;48.210;16.234;2023-04-16T09:18:41;98848.41;;;8.79;90.65
51099;BME280;37146;48.210;16.234;2023-04-16T09:21:08;98847.69;;;8.76;91.89
51099;BME280;37146;48.210;16.234;2023-04-16T09:23:34;98847.44;;;9.00;94.09
51099;BME280;37146;48.210;16.234;2023-04-16T09:25:59;98841.50;;;8.75;100.00
51099;BME280;37146;48.210;16.234;2023-04-16T09:28:40;98850.78;;;8.86;100.00
51099;BME280;37146;48.210;16.234;2023-04-16T09:31:07;98853.75;;;8.79;100.00
51099;BME280;37146;48.210;16.234;2023-04-16T09:33:32;98845.59;;;8.82;100.00
51099;BME280;37146;48.210;16.234;2023-04-16T09:35:59;98854.59;;;8.99;100.00
51099;BME280;37146;48.210;16.234;2023-04-16T09:38:25;98857.84;;;9.42;95.91
51099;BME280;37146;48.210;16.234;2023-04-16T09:41:13;98861.31;;;9.44;98.14
51099;BME280;37146;48.210;16.234;2023-04-16T09:43:40;98858.81;;;9.77;97.04
51099;BME280;37146;48.210;16.234;2023-04-16T09:46:05;98860.22;;;9.84;91.71
51099;BME280;37146;48.210;16.234;2023-04-16T09:48:31;98860.78;;;10.08;87.92
51099;BME280;37146;48.210;16.234;2023-04-16T09:50:57;98861.00;;;10.21;83.34
51099;BME280;37146;48.210;16.234;2023-04-16T09:53:26;98863.59;;;10.90;81.04
51099;BME280;37146;48.210;16.234;2023-04-16T09:55:55;98871.03;;;10.51;79.26
51099;BME280;37146;48.210;16.234;2023-04-16T09:58:22;98873.78;;;11.15;78.40
51099;BME280;37146;48.210;16.234;2023-04-16T10:00:48;98865.75;;;11.15;76.65
51099;BME280;37146;48.210;16.234;2023-04-16T10:03:13;98857.53;;;11.34;77.95
51099;BME280;37146;48.210;16.234;2023-04-16T10:05:39;98860.25;;;12.11;74.41
51099;BME280;37146;48.210;16.234;2023-04-16T10:08:12;98868.31;;;11.49;72.32
51099;BME280;37146;48.210;16.234;2023-04-16T10:10:37;98864.97;;;11.45;73.09
51099;BME280;37146;48.210;16.234;2023-04-16T10:13:02;98865.84;;;11.29;78.01
51099;BME280;37146;48.210;16.234;2023-04-16T10:15:28;98866.53;;;11.17;82.18
51099;BME280;37146;48.210;16.234;2023-04-16T10:17:54;98869.00;;;10.56;83.74
51099;BME280;37146;48.210;16.234;2023-04-16T10:20:19;98859.38;;;10.52;83.12
51099;BME280;37146;48.210;16.234;2023-04-16T10:22:45;98854.22;;;10.31;83.74
51099;BME280;37146;48.210;16.234;2023-04-16T10:25:10;98863.28;;;10.62;83.53
51099;BME280;37146;48.210;16.234;2023-04-16T10:27:36;98869.28;;;10.83;76.67
51099;BME280;37146;48.210;16.234;2023-04-16T10:30:02;98865.19;;;10.60;76.69
51099;BME280;37146;48.210;16.234;2023-04-16T10:32:27;98871.47;;;10.59;81.03
51099;BME280;37146;48.210;16.234;2023-04-16T10:34:55;98869.34;;;9.97;85.25
51099;BME280;37146;48.210;16.234;2023-04-16T10:37:28;98868.16;;;9.68;91.37
51099;BME280;37146;48.210;16.234;2023-04-16T10:39:53;98864.25;;;9.93;92.05
51099;BME280;37146;48.210;16.234;2023-04-16T10:42:18;98870.44;;;9.75;90.44
51099;BME280;37146;48.210;16.234;2023-04-16T10:44:43;98873.66;;;9.65;90.51
51099;BME280;37146;48.210;16.234;2023-04-16T10:47:10;98866.84;;;10.12;87.54
51099;BME280;37146;48.210;16.234;2023-04-16T10:49:36;98864.47;;;10.05;85.32
51099;BME280;37146;48.210;16.234;2023-04-16T10:52:09;98869.78;;;9.53;89.95
51099;BME280;37146;48.210;16.234;2023-04-16T10:54:35;98866.97;;;9.73;86.65
51099;BME280;37146;48.210;16.234;2023-04-16T10:57:04;98869.41;;;9.61;90.41
51099;BME280;37146;48.210;16.234;2023-04-16T10:59:31;98874.84;;;9.59;88.22
51099;BME280;37146;48.210;16.234;2023-04-16T11:01:57;98872.84;;;9.45;89.40
51099;BME280;37146;48.210;16.234;2023-04-16T11:12:14;98874.16;;;9.73;92.06
51099;BME280;37146;48.210;16.234;2023-04-16T11:14:41;98875.44;;;9.47;90.32
51099;BME280;37146;48.210;16.234;2023-04-16T11:17:06;98882.31;;;9.70;88.34
51099;BME280;37146;48.210;16.234;2023-04-16T11:19:31;98874.59;;;9.99;89.90
51099;BME280;37146;48.210;16.234;2023-04-16T11:21:57;98871.59;;;10.23;85.51
51099;BME280;37146;48.210;16.234;2023-04-16T11:24:23;98872.34;;;10.09;87.62
51099;BME280;37146;48.210;16.234;2023-04-16T11:26:51;98877.13;;;10.02;88.83
51099;BME280;37146;48.210;16.234;2023-04-16T11:29:16;98874.81;;;10.29;87.19
51099;BME280;37146;48.210;16.234;2023-04-16T11:31:48;98876.00;;;10.24;85.91
51099;BME280;37146;48.210;16.234;2023-04-16T11:34:13;98878.63;;;9.90;86.15
51099;BME280;37146;48.210;16.234;2023-04-16T11:36:43;98877.38;;;9.80;84.42
51099;BME280;37146;48.210;16.234;2023-04-16T11:39:08;98875.47;;;10.17;86.03
51099;BME280;37146;48.210;16.234;2023-04-16T11:41:33;98885.63;;;9.93;87.01
51099;BME280;37146;48.210;16.234;2023-04-16T11:43:58;98885.28;;;9.81;88.96
51099;BME280;37146;48.210;16.234;2023-04-16T11:46:36;98881.28;;;10.08;84.73
51099;BME280;37146;48.210;16.234;2023-04-16T11:49:01;98880.81;;;9.82;85.87
51099;BME280;37146;48.210;16.234;2023-04-16T11:51:26;98889.44;;;10.04;85.40
51099;BME280;37146;48.210;16.234;2023-04-16T11:53:52;98889.31;;;9.90;92.00
51099;BME280;37146;48.210;16.234;2023-04-16T11:56:27;98885.84;;;10.23;89.44
51099;BME280;37146;48.210;16.234;2023-04-16T11:59:12;98889.53;;;9.68;87.00
51099;BME280;37146;48.210;16.234;2023-04-16T12:01:38;98890.22;;;9.71;83.88
51099;BME280;37146;48.210;16.234;2023-04-16T12:04:04;98890.09;;;9.74;85.42
51099;BME280;37146;48.210;16.234;2023-04-16T12:06:30;98880.75;;;10.01;83.35
51099;BME280;37146;48.210;16.234;2023-04-16T12:08:56;98884.97;;;9.87;82.15
51099;BME280;37146;48.210;16.234;2023-04-16T12:11:36;98886.03;;;10.02;84.53
51099;BME280;37146;48.210;16.234;2023-04-16T12:14:07;98889.16;;;10.11;82.25
51099;BME280;37146;48.210;16.234;2023-04-16T12:16:33;98889.16;;;10.46;81.70
51099;BME280;37146;48.210;16.234;2023-04-16T12:18:59;98885.63;;;10.61;83.71
51099;BME280;37146;48.210;16.234;2023-04-16T12:21:44;98895.50;;;10.77;84.06
51099;BME280;37146;48.210;16.234;2023-04-16T12:24:10;98891.69;;;10.81;82.06
51099;BME280;37146;48.210;16.234;2023-04-16T12:26:42;98881.38;;;10.91;81.11
51099;BME280;37146;48.210;16.234;2023-04-16T12:29:21;98893.00;;;10.40;80.48
51099;BME280;37146;48.210;16.234;2023-04-16T12:31:47;98878.31;;;10.65;85.03
51099;BME280;37146;48.210;16.234;2023-04-16T12:34:13;98888.56;;;10.90;83.44
51099;BME280;37146;48.210;16.234;2023-04-16T12:36:42;98884.81;;;10.77;82.06
51099;BME280;37146;48.210;16.234;2023-04-16T12:39:07;98880.34;;;11.25;80.53
51099;BME280;37146;48.210;16.234;2023-04-16T12:41:35;98876.19;;;11.52;80.13
51099;BME280;37146;48.210;16.234;2023-04-16T12:44:02;98884.69;;;11.28;79.95
51099;BME280;37146;48.210;16.234;2023-04-16T12:46:27;98883.22;;;11.22;81.24
51099;BME280;37146;48.210;16.234;2023-04-16T12:48:52;98876.91;;;11.70;77.66
51099;BME280;37146;48.210;16.234;2023-04-16T12:51:18;98867.34;;;12.41;75.11